createdAt,value
2023-02-28T00:01:14.132Z,4.18
2023-02-28T00:03:40.834Z,4.13
2023-02-28T00:06:08.239Z,3.90
2023-02-28T00:08:34.838Z,4.03
2023-02-28T00:11:03.912Z,4.38
2023-02-28T00:13:30.422Z,4.85
2023-02-28T00:16:05.106Z,4.15
2023-02-28T00:18:31.748Z,4.30
2023-02-28T00:20:59.095Z,4.85
2023-02-28T00:23:26.665Z,4.13
2023-02-28T00:25:53.355Z,4.20
2023-02-28T00:28:20.341Z,4.00
2023-02-28T00:30:46.881Z,3.88
2023-02-28T00:33:13.626Z,4.03
2023-02-28T00:35:40.325Z,3.88
2023-02-28T00:38:09.456Z,4.05
2023-02-28T00:40:36.079Z,4.28
2023-02-28T00:43:02.615Z,4.10
2023-02-28T00:45:29.167Z,5.15
2023-02-28T00:47:57.570Z,4.25
2023-02-28T00:50:24.184Z,4.35
2023-02-28T00:52:50.713Z,4.45
2023-02-28T00:55:17.542Z,4.07
2023-02-28T00:57:44.071Z,5.18
2023-02-28T01:00:11.961Z,5.05
2023-02-28T01:02:38.418Z,4.32
2023-02-28T01:05:05.715Z,4.43
2023-02-28T01:07:32.531Z,4.85
2023-02-28T01:09:59.014Z,4.55
2023-02-28T01:12:25.771Z,4.65
2023-02-28T01:14:52.391Z,5.07
2023-02-28T01:17:21.908Z,4.78
2023-02-28T01:19:48.432Z,4.15
2023-02-28T01:22:14.962Z,4.30
2023-02-28T01:24:42.571Z,4.45
2023-02-28T01:27:12.721Z,4.37
2023-02-28T01:29:39.270Z,5.45
2023-02-28T01:32:05.885Z,4.90
2023-02-28T01:34:32.451Z,4.80
2023-02-28T01:36:59.824Z,5.05
2023-02-28T01:39:27.010Z,5.45
2023-02-28T01:41:53.502Z,4.65
2023-02-28T01:44:57.511Z,4.90
2023-02-28T01:47:27.105Z,4.93
2023-02-28T01:49:53.750Z,4.57
2023-02-28T01:52:20.944Z,4.72
2023-02-28T01:54:52.711Z,4.38
2023-02-28T01:57:22.770Z,4.80
2023-02-28T01:59:53.544Z,5.17
2023-02-28T02:02:22.113Z,4.40
2023-02-28T02:05:02.673Z,4.93
2023-02-28T02:07:33.403Z,4.35
2023-02-28T02:10:11.633Z,5.15
2023-02-28T02:13:03.759Z,4.95
2023-02-28T02:15:35.672Z,4.38
2023-02-28T02:18:11.986Z,5.32
2023-02-28T02:21:18.121Z,5.63
2023-02-28T02:24:09.951Z,4.43
2023-02-28T02:27:00.612Z,4.45
2023-02-28T02:29:42.083Z,5.13
2023-02-28T02:32:49.128Z,5.47
2023-02-28T02:35:50.895Z,4.90
2023-02-28T02:38:37.197Z,4.60
2023-02-28T02:41:08.355Z,5.35
2023-02-28T02:44:12.380Z,5.05
2023-02-28T02:46:41.981Z,5.28
2023-02-28T02:49:14.012Z,4.57
2023-02-28T02:51:41.796Z,5.00
2023-02-28T02:54:12.834Z,4.75
2023-02-28T02:56:43.286Z,5.65
2023-02-28T02:59:12.968Z,5.75
2023-02-28T03:01:41.662Z,5.13
2023-02-28T03:04:19.466Z,5.32
2023-02-28T03:06:47.231Z,6.53
2023-02-28T03:09:13.799Z,5.60
2023-02-28T03:11:41.375Z,5.50
2023-02-28T03:14:46.156Z,4.63
2023-02-28T03:17:50.804Z,5.10
2023-02-28T03:20:36.853Z,4.63
2023-02-28T03:23:17.831Z,4.38
2023-02-28T03:25:47.297Z,4.88
2023-02-28T03:28:19.808Z,4.93
2023-02-28T03:30:54.821Z,5.57
2023-02-28T03:33:25.920Z,4.63
2023-02-28T03:35:58.260Z,4.95
2023-02-28T03:38:35.663Z,4.82
2023-02-28T03:41:07.852Z,5.20
2023-02-28T03:43:37.019Z,4.63
2023-02-28T03:46:08.366Z,4.78
2023-02-28T03:48:44.240Z,4.35
2023-02-28T03:51:11.911Z,5.50
2023-02-28T03:54:05.709Z,5.22
2023-02-28T03:56:37.717Z,5.45
2023-02-28T03:59:22.251Z,4.78
2023-02-28T04:01:49.937Z,4.72
2023-02-28T04:04:17.205Z,6.07
2023-02-28T04:06:44.845Z,5.15
2023-02-28T04:11:47.193Z,5.47
2023-02-28T04:14:13.738Z,5.13
2023-02-28T04:16:42.974Z,5.47
2023-02-28T04:19:11.459Z,5.28
2023-02-28T04:21:41.315Z,5.60
2023-02-28T04:24:10.010Z,5.25
2023-02-28T04:26:37.933Z,5.30
2023-02-28T04:29:06.056Z,5.15
2023-02-28T04:31:33.210Z,5.53
2023-02-28T04:34:00.352Z,5.00
2023-02-28T04:36:26.936Z,5.47
2023-02-28T04:38:53.435Z,5.20
2023-02-28T04:41:20.159Z,5.53
2023-02-28T04:43:46.669Z,5.75
2023-02-28T04:46:13.265Z,5.15
2023-02-28T04:48:41.005Z,5.82
2023-02-28T04:51:10.074Z,5.30
2023-02-28T04:53:38.063Z,6.05
2023-02-28T04:56:04.950Z,5.78
2023-02-28T04:58:31.482Z,5.43
2023-02-28T05:01:16.394Z,6.82
2023-02-28T05:03:43.717Z,5.18
2023-02-28T05:06:11.543Z,6.03
2023-02-28T05:08:38.342Z,5.60
2023-02-28T05:11:05.374Z,5.80
2023-02-28T05:13:31.966Z,5.53
2023-02-28T05:15:58.540Z,5.55
2023-02-28T05:18:25.149Z,5.65
2023-02-28T05:20:51.701Z,5.60
2023-02-28T05:23:18.808Z,6.32
2023-02-28T05:25:45.292Z,5.93
2023-02-28T05:28:11.872Z,6.82
2023-02-28T05:30:38.408Z,5.95
2023-02-28T05:33:04.896Z,5.50
2023-02-28T05:35:31.546Z,5.65
2023-02-28T05:37:58.077Z,5.88
2023-02-28T05:40:24.570Z,6.15
2023-02-28T05:42:51.667Z,6.20
2023-02-28T05:45:18.193Z,6.75
2023-02-28T05:47:44.796Z,5.75
2023-02-28T05:50:11.623Z,6.43
2023-02-28T05:52:38.368Z,6.15
2023-02-28T05:55:05.280Z,6.43
2023-02-28T05:57:31.826Z,6.93
2023-02-28T05:59:58.331Z,6.22
2023-02-28T06:02:24.940Z,6.85
2023-02-28T06:04:51.603Z,7.50
2023-02-28T06:07:18.610Z,6.82
2023-02-28T06:09:45.119Z,6.50
2023-02-28T06:12:11.695Z,7.43
2023-02-28T06:14:38.313Z,6.53
2023-02-28T06:17:06.189Z,6.50
2023-02-28T06:19:32.693Z,6.75
2023-02-28T06:22:00.577Z,6.55
2023-02-28T06:24:29.086Z,7.00
2023-02-28T06:26:55.732Z,6.43
2023-02-28T06:29:22.324Z,7.57
2023-02-28T06:31:49.704Z,7.60
2023-02-28T06:34:17.462Z,7.25
2023-02-28T06:36:44.701Z,7.28
2023-02-28T06:39:11.326Z,7.22
2023-02-28T06:41:53.575Z,6.63
2023-02-28T06:44:20.640Z,8.65
2023-02-28T06:46:47.702Z,7.43
2023-02-28T06:49:14.276Z,7.32
2023-02-28T06:51:42.638Z,6.97
2023-02-28T06:54:12.179Z,8.02
2023-02-28T06:56:38.775Z,7.82
2023-02-28T06:59:05.649Z,6.45
2023-02-28T07:01:33.703Z,7.63
2023-02-28T07:04:01.122Z,6.50
2023-02-28T07:06:27.909Z,7.30
2023-02-28T07:08:55.188Z,7.07
2023-02-28T07:11:26.880Z,6.85
2023-02-28T07:13:54.743Z,7.22
2023-02-28T07:16:21.391Z,6.82
2023-02-28T07:18:48.147Z,6.97
2023-02-28T07:21:14.985Z,6.85
2023-02-28T07:23:42.522Z,6.68
2023-02-28T07:26:15.599Z,7.55
2023-02-28T07:28:43.386Z,7.13
2023-02-28T07:31:11.009Z,7.15
2023-02-28T07:33:37.831Z,7.13
2023-02-28T07:36:06.506Z,7.60
2023-02-28T07:38:37.122Z,7.53
2023-02-28T07:41:05.363Z,7.15
2023-02-28T07:43:32.797Z,7.68
2023-02-28T07:46:04.505Z,6.32
2023-02-28T07:48:31.129Z,7.50
2023-02-28T07:50:58.283Z,6.63
2023-02-28T07:53:24.912Z,6.32
2023-02-28T07:55:51.426Z,6.53
2023-02-28T07:58:17.935Z,5.93
2023-02-28T08:00:44.539Z,5.95
2023-02-28T08:03:14.205Z,4.93
2023-02-28T08:05:41.348Z,5.68
2023-02-28T08:08:08.751Z,4.60
2023-02-28T08:10:35.431Z,4.55
2023-02-28T08:13:01.936Z,4.18
2023-02-28T08:15:28.436Z,2.40
2023-02-28T08:17:57.149Z,3.03
2023-02-28T08:20:24.691Z,3.38
2023-02-28T08:22:51.227Z,3.63
2023-02-28T08:25:17.811Z,3.45
2023-02-28T08:27:44.515Z,2.88
2023-02-28T08:30:12.789Z,2.80
2023-02-28T08:32:39.680Z,2.50
2023-02-28T08:35:06.637Z,2.67
2023-02-28T08:37:33.164Z,2.40
2023-02-28T08:39:59.680Z,2.22
2023-02-28T08:42:26.148Z,2.50
2023-02-28T08:44:52.722Z,2.90
2023-02-28T08:47:19.795Z,2.65
2023-02-28T08:49:46.409Z,2.60
2023-02-28T08:52:12.924Z,2.10
2023-02-28T08:54:39.456Z,2.15
2023-02-28T08:57:06.171Z,2.13
2023-02-28T08:59:32.868Z,2.28
2023-02-28T09:01:59.365Z,2.10
2023-02-28T09:04:26.268Z,1.90
2023-02-28T09:06:52.840Z,2.40
2023-02-28T09:09:19.346Z,2.03
2023-02-28T09:11:45.837Z,2.17
2023-02-28T09:14:12.437Z,2.30
2023-02-28T09:16:39.066Z,2.40
2023-02-28T09:19:05.564Z,2.20
2023-02-28T09:21:32.177Z,2.67
2023-02-28T09:23:58.869Z,2.50
2023-02-28T09:26:34.657Z,2.40
2023-02-28T09:29:05.974Z,2.42
2023-02-28T09:31:32.546Z,2.28
2023-02-28T09:34:00.271Z,2.40
2023-02-28T09:36:43.333Z,2.90
2023-02-28T09:39:10.855Z,2.03
2023-02-28T09:41:42.356Z,2.50
2023-02-28T09:44:14.177Z,2.55
2023-02-28T09:46:46.959Z,2.40
2023-02-28T09:49:30.142Z,2.72
2023-02-28T09:52:01.166Z,2.75
2023-02-28T09:57:06.117Z,2.30
2023-02-28T09:59:47.877Z,2.88
2023-02-28T10:02:39.020Z,2.88
2023-02-28T10:05:13.148Z,2.20
2023-02-28T10:08:02.766Z,2.90
2023-02-28T10:10:47.009Z,2.50
2023-02-28T10:13:35.984Z,2.50
2023-02-28T10:16:09.056Z,2.30
2023-02-28T10:18:48.584Z,2.70
2023-02-28T10:21:22.732Z,2.70
2023-02-28T10:23:49.642Z,2.47
2023-02-28T10:26:18.805Z,2.15
2023-02-28T10:28:45.839Z,2.17
2023-02-28T10:31:17.469Z,2.50
2023-02-28T10:33:43.966Z,2.35
2023-02-28T10:36:15.847Z,2.10
2023-02-28T10:38:42.368Z,2.10
2023-02-28T10:41:11.439Z,2.47
2023-02-28T10:43:40.198Z,2.22
2023-02-28T10:46:09.724Z,2.20
2023-02-28T10:49:05.528Z,2.15
2023-02-28T10:51:39.900Z,2.20
2023-02-28T10:54:07.045Z,2.20
2023-02-28T10:56:34.385Z,2.00
2023-02-28T10:59:27.552Z,2.05
2023-02-28T11:01:54.389Z,2.53
2023-02-28T11:04:23.936Z,2.63
2023-02-28T11:07:01.408Z,2.70
2023-02-28T11:09:31.708Z,2.65
2023-02-28T11:11:58.374Z,2.80
2023-02-28T11:14:29.891Z,2.58
2023-02-28T11:17:00.410Z,2.60
2023-02-28T11:19:31.526Z,2.42
2023-02-28T11:24:28.522Z,2.80
2023-02-28T11:26:56.160Z,2.85
2023-02-28T11:29:25.787Z,2.40
2023-02-28T11:32:19.536Z,2.20
2023-02-28T11:34:47.321Z,2.30
2023-02-28T11:37:16.607Z,2.63
2023-02-28T11:39:44.257Z,2.65
2023-02-28T11:42:16.466Z,2.92
2023-02-28T11:45:27.257Z,2.60
2023-02-28T11:48:05.815Z,2.60
2023-02-28T11:50:58.640Z,2.50
2023-02-28T11:53:36.499Z,2.83
2023-02-28T11:56:08.682Z,2.65
2023-02-28T11:58:48.364Z,2.80
2023-02-28T12:01:22.966Z,2.70
2023-02-28T12:03:59.604Z,3.22
2023-02-28T12:06:40.077Z,2.63
2023-02-28T12:09:19.355Z,2.60
2023-02-28T12:11:51.560Z,2.67
2023-02-28T12:14:31.695Z,3.10
2023-02-28T12:17:14.756Z,3.05
2023-02-28T12:19:51.992Z,3.05
2023-02-28T12:22:30.122Z,3.30
2023-02-28T12:25:23.345Z,3.80
2023-02-28T12:27:51.341Z,3.88
2023-02-28T12:30:24.809Z,3.13
2023-02-28T12:32:58.463Z,3.42
2023-02-28T12:35:44.862Z,3.40
2023-02-28T12:38:14.112Z,3.63
2023-02-28T12:40:55.071Z,2.92
2023-02-28T12:43:26.103Z,3.63
2023-02-28T12:45:56.912Z,3.50
2023-02-28T12:50:57.977Z,3.00
2023-02-28T12:53:31.536Z,3.28
2023-02-28T12:56:20.156Z,2.67
2023-02-28T12:58:51.154Z,3.40
2023-02-28T13:04:35.563Z,3.10
2023-02-28T13:07:17.545Z,3.10
2023-02-28T13:09:53.669Z,3.35
2023-02-28T13:12:21.553Z,2.97
2023-02-28T13:14:48.083Z,3.60
2023-02-28T13:17:20.482Z,3.38
2023-02-28T13:19:52.615Z,3.15
2023-02-28T13:22:27.039Z,3.40
2023-02-28T13:24:55.113Z,3.63
2023-02-28T13:27:25.457Z,3.50
2023-02-28T13:29:53.443Z,3.17
2023-02-28T13:32:27.604Z,3.40
2023-02-28T13:34:54.034Z,4.15
2023-02-28T13:37:24.000Z,3.67
2023-02-28T13:39:56.820Z,3.45
2023-02-28T13:42:25.808Z,3.55
2023-02-28T13:45:22.771Z,3.55
2023-02-28T13:47:55.109Z,3.63
2023-02-28T13:50:27.747Z,3.30
2023-02-28T13:53:28.941Z,3.33
2023-02-28T13:59:01.933Z,3.30
2023-02-28T14:01:46.723Z,3.50
2023-02-28T14:04:40.018Z,3.60
2023-02-28T14:07:07.435Z,3.10
2023-02-28T14:09:36.530Z,3.22
2023-02-28T14:12:40.384Z,2.95
2023-02-28T14:15:36.459Z,3.30
2023-02-28T14:18:06.699Z,3.47
2023-02-28T14:20:34.745Z,3.10
2023-02-28T14:23:31.666Z,3.60
2023-02-28T14:26:09.179Z,3.25
2023-02-28T14:28:47.916Z,3.17
2023-02-28T14:31:18.270Z,3.78
2023-02-28T14:34:12.677Z,3.65
2023-02-28T14:36:42.198Z,3.45
2023-02-28T14:39:13.319Z,3.50
2023-02-28T14:44:19.018Z,3.63
2023-02-28T14:46:47.272Z,3.75
2023-02-28T14:49:18.614Z,3.60
2023-02-28T14:51:45.357Z,3.67
2023-02-28T14:54:16.305Z,3.65
2023-02-28T14:56:43.011Z,4.10
2023-02-28T14:59:26.858Z,3.60
2023-02-28T15:01:53.872Z,4.25
2023-02-28T15:04:28.394Z,3.90
2023-02-28T15:07:16.606Z,3.72
2023-02-28T15:09:43.149Z,3.63
2023-02-28T15:12:14.749Z,3.80
2023-02-28T15:14:44.168Z,3.67
2023-02-28T15:17:19.600Z,4.18
2023-02-28T15:19:51.243Z,3.78
2023-02-28T15:22:22.310Z,3.85
2023-02-28T15:27:23.113Z,3.92
2023-02-28T15:29:52.057Z,3.33
2023-02-28T15:32:40.648Z,3.67
2023-02-28T15:35:28.392Z,3.80
2023-02-28T15:38:16.671Z,3.95
2023-02-28T15:40:45.791Z,3.90
2023-02-28T15:43:24.179Z,3.80
2023-02-28T15:45:57.989Z,3.80
2023-02-28T15:48:37.828Z,4.15
2023-02-28T15:51:13.326Z,3.70
2023-02-28T15:53:51.262Z,3.58
2023-02-28T15:56:40.515Z,4.38
2023-02-28T15:59:08.308Z,3.72
2023-02-28T16:01:38.818Z,4.13
2023-02-28T16:04:12.340Z,4.22
2023-02-28T16:06:45.463Z,4.20
2023-02-28T16:09:16.884Z,4.18
2023-02-28T16:11:46.800Z,5.57
2023-02-28T16:14:17.180Z,4.22
2023-02-28T16:16:49.166Z,3.50
2023-02-28T16:19:16.103Z,3.95
2023-02-28T16:21:42.713Z,4.03
2023-02-28T16:24:09.265Z,3.83
2023-02-28T16:26:36.188Z,3.97
2023-02-28T16:29:03.060Z,3.78
2023-02-28T16:31:29.874Z,3.85
2023-02-28T16:33:58.080Z,4.38
2023-02-28T16:36:28.835Z,4.00
2023-02-28T16:38:56.152Z,4.45
2023-02-28T16:41:25.957Z,4.40
2023-02-28T16:43:54.015Z,4.05
2023-02-28T16:46:21.003Z,4.28
2023-02-28T16:48:52.159Z,4.13
2023-02-28T16:51:19.141Z,4.10
2023-02-28T16:53:45.831Z,4.07
2023-02-28T16:56:22.983Z,4.30
2023-02-28T16:58:50.684Z,4.30
2023-02-28T17:01:22.852Z,4.13
2023-02-28T17:03:50.345Z,4.15
2023-02-28T17:06:29.180Z,4.50
2023-02-28T17:08:56.747Z,4.22
2023-02-28T17:11:23.733Z,4.28
2023-02-28T17:13:50.281Z,4.13
2023-02-28T17:16:31.421Z,4.78
2023-02-28T17:19:00.781Z,3.83
2023-02-28T17:21:27.499Z,4.10
2023-02-28T17:23:54.345Z,4.28
2023-02-28T17:26:22.400Z,3.70
2023-02-28T17:28:49.526Z,3.80
2023-02-28T17:31:16.429Z,4.00
2023-02-28T17:33:42.980Z,4.43
2023-02-28T17:36:15.948Z,4.60
2023-02-28T17:38:42.527Z,4.60
2023-02-28T17:41:12.281Z,4.78
2023-02-28T17:43:38.815Z,4.75
2023-02-28T17:46:08.202Z,4.10
2023-02-28T17:48:36.792Z,4.90
2023-02-28T17:51:03.324Z,4.90
2023-02-28T17:53:29.902Z,4.75
2023-02-28T17:55:56.385Z,5.30
2023-02-28T17:58:22.930Z,5.50
2023-02-28T18:00:54.617Z,4.80
2023-02-28T18:03:21.700Z,4.88
2023-02-28T18:05:48.594Z,4.72
2023-02-28T18:08:15.578Z,4.50
2023-02-28T18:10:42.127Z,5.03
2023-02-28T18:13:08.762Z,5.65
2023-02-28T18:15:35.992Z,6.55
2023-02-28T18:18:03.332Z,5.80
2023-02-28T18:20:29.893Z,5.05
2023-02-28T18:22:56.330Z,6.03
2023-02-28T18:25:23.399Z,6.40
2023-02-28T18:27:58.913Z,5.70
2023-02-28T18:30:28.790Z,6.70
2023-02-28T18:32:55.328Z,6.32
2023-02-28T18:35:34.747Z,6.03
2023-02-28T18:38:09.641Z,6.55
2023-02-28T18:40:36.799Z,6.43
2023-02-28T18:43:03.853Z,6.38
2023-02-28T18:45:31.145Z,6.05
2023-02-28T18:47:57.789Z,7.68
2023-02-28T18:50:24.253Z,9.23
2023-02-28T18:52:51.446Z,7.93
2023-02-28T18:55:19.056Z,7.75
2023-02-28T18:57:48.710Z,7.22
2023-02-28T19:00:19.634Z,7.85
2023-02-28T19:05:12.747Z,7.40
2023-02-28T19:07:39.334Z,7.43
2023-02-28T19:10:06.427Z,7.00
2023-02-28T19:12:37.388Z,7.70
2023-02-28T19:17:32.202Z,7.32
2023-02-28T19:19:58.994Z,8.23
2023-02-28T19:22:26.289Z,7.75
2023-02-28T19:24:52.853Z,7.15
2023-02-28T19:27:22.075Z,7.28
2023-02-28T19:29:50.399Z,6.75
2023-02-28T19:32:18.469Z,6.32
2023-02-28T19:34:45.350Z,6.68
2023-02-28T19:37:11.850Z,5.93
2023-02-28T19:39:41.586Z,7.45
2023-02-28T19:42:13.340Z,6.15
2023-02-28T19:44:40.390Z,6.15
2023-02-28T19:47:07.164Z,6.82
2023-02-28T19:49:34.110Z,6.65
2023-02-28T19:52:01.026Z,7.25
2023-02-28T19:54:27.694Z,6.82
2023-02-28T19:56:58.433Z,6.80
2023-02-28T19:59:35.886Z,7.20
2023-02-28T20:02:05.228Z,6.60
2023-02-28T20:04:31.803Z,6.45
2023-02-28T20:06:58.388Z,6.00
2023-02-28T20:09:24.893Z,6.43
2023-02-28T20:11:51.450Z,7.30
2023-02-28T20:14:18.175Z,6.00
2023-02-28T20:16:45.758Z,6.05
2023-02-28T20:19:13.170Z,5.60
2023-02-28T20:21:41.289Z,6.93
2023-02-28T20:24:07.917Z,6.72
2023-02-28T20:26:35.036Z,6.97
2023-02-28T20:29:01.573Z,7.38
2023-02-28T20:31:28.731Z,6.88
2023-02-28T20:33:55.305Z,6.43
2023-02-28T20:36:22.728Z,6.90
2023-02-28T20:38:50.487Z,6.80
2023-02-28T20:41:17.698Z,7.13
2023-02-28T20:43:44.523Z,9.23
2023-02-28T20:46:11.191Z,12.38
2023-02-28T20:48:38.336Z,9.65
2023-02-28T20:51:05.901Z,9.82
2023-02-28T20:53:33.768Z,10.80
2023-02-28T20:56:06.356Z,15.00
2023-02-28T20:58:35.688Z,18.92
2023-02-28T21:01:15.844Z,21.02
2023-02-28T21:03:51.037Z,21.45
2023-02-28T21:06:19.049Z,22.27
2023-02-28T21:08:45.573Z,24.23
2023-02-28T21:11:18.150Z,23.95
2023-02-28T21:13:45.833Z,23.17
2023-02-28T21:16:17.624Z,24.35
2023-02-28T21:18:44.349Z,20.63
2023-02-28T21:21:17.680Z,18.50
2023-02-28T21:23:47.822Z,18.05
2023-02-28T21:26:17.167Z,13.95
2023-02-28T21:28:46.522Z,16.85
2023-02-28T21:31:15.763Z,16.23
2023-02-28T21:33:43.670Z,16.60
2023-02-28T21:36:12.546Z,16.23
2023-02-28T21:38:39.855Z,15.30
2023-02-28T21:41:09.693Z,12.60
2023-02-28T21:43:36.310Z,10.55
2023-02-28T21:46:04.949Z,13.82
2023-02-28T21:48:32.079Z,14.10
2023-02-28T21:51:01.436Z,12.63
2023-02-28T21:53:31.439Z,13.50
2023-02-28T21:56:04.812Z,11.60
2023-02-28T21:58:31.454Z,11.35
2023-02-28T22:01:11.962Z,10.77
2023-02-28T22:03:39.276Z,10.43
2023-02-28T22:06:12.632Z,10.63
2023-02-28T22:08:40.530Z,9.85
2023-02-28T22:11:07.774Z,10.68
2023-02-28T22:13:34.434Z,10.38
2023-02-28T22:16:20.463Z,10.98
2023-02-28T22:18:47.235Z,10.77
2023-02-28T22:21:14.686Z,10.07
2023-02-28T22:23:42.224Z,9.68
2023-02-28T22:26:11.189Z,9.30
2023-02-28T22:28:37.648Z,9.30
2023-02-28T22:31:14.818Z,8.48
2023-02-28T22:33:41.791Z,8.52
2023-02-28T22:36:09.108Z,9.13
2023-02-28T22:38:35.768Z,8.15
2023-02-28T22:41:03.535Z,8.82
2023-02-28T22:43:30.010Z,8.18
2023-02-28T22:45:56.514Z,8.70
2023-02-28T22:48:22.998Z,7.88
2023-02-28T22:50:49.466Z,7.45
2023-02-28T22:53:16.033Z,7.93
2023-02-28T22:55:42.481Z,8.20
2023-02-28T22:58:08.991Z,8.07
2023-02-28T23:00:35.481Z,8.10
2023-02-28T23:03:02.080Z,9.00
2023-02-28T23:05:30.411Z,8.68
2023-02-28T23:07:56.985Z,7.72
2023-02-28T23:10:23.521Z,8.02
2023-02-28T23:12:53.297Z,7.72
2023-02-28T23:15:20.955Z,7.80
2023-02-28T23:17:48.308Z,8.13
2023-02-28T23:20:18.670Z,7.07
2023-02-28T23:22:46.489Z,7.22
2023-02-28T23:25:14.002Z,7.95
2023-02-28T23:27:40.638Z,8.32
2023-02-28T23:30:07.836Z,8.02
2023-02-28T23:32:34.431Z,7.85
2023-02-28T23:35:00.958Z,7.93
2023-02-28T23:37:27.423Z,7.38
2023-02-28T23:39:53.983Z,8.02
2023-02-28T23:42:20.463Z,7.72
2023-02-28T23:44:46.982Z,7.30
2023-02-28T23:47:14.338Z,9.27
2023-02-28T23:49:40.974Z,7.88
2023-02-28T23:52:07.488Z,8.82
2023-02-28T23:54:34.474Z,7.80
2023-02-28T23:57:00.947Z,8.07
2023-02-28T23:59:27.472Z,8.77
